createdAt,value
2015-08-26T00:00:10.130Z,29.86
2015-08-26T00:00:22.505Z,30.43
2015-08-26T00:00:34.897Z,30.24
2015-08-26T00:00:47.257Z,30.43
2015-08-26T00:00:59.647Z,30.33
2015-08-26T00:01:12.022Z,30.24
2015-08-26T00:01:24.413Z,29.86
2015-08-26T00:01:36.791Z,29.76
2015-08-26T00:01:49.166Z,30.33
2015-08-26T00:02:01.541Z,30.33
2015-08-26T00:02:13.775Z,30.24
2015-08-26T00:02:26.150Z,30.43
2015-08-26T00:02:38.526Z,30.33
2015-08-26T00:02:50.901Z,30.43
2015-08-26T00:03:03.292Z,30.52
2015-08-26T00:03:15.683Z,30.8
2015-08-26T00:03:28.058Z,30.99
2015-08-26T00:03:40.451Z,30.99
2015-08-26T00:03:52.842Z,30.99
2015-08-26T00:04:04.529Z,31.28
2015-08-26T00:04:16.936Z,31.37
2015-08-26T00:04:29.342Z,31.28
2015-08-26T00:04:41.749Z,31.28
2015-08-26T00:04:54.155Z,31.09
2015-08-26T00:05:06.546Z,31.09
2015-08-26T00:05:18.952Z,30.99
2015-08-26T00:05:31.359Z,31.28
2015-08-26T00:05:43.767Z,31.28
2015-08-26T00:05:56.173Z,31.66
2015-08-26T00:06:08.579Z,31.66
2015-08-26T00:06:20.970Z,31.66
2015-08-26T00:06:33.361Z,32.32
2015-08-26T00:06:45.738Z,32.23
2015-08-26T00:06:58.113Z,32.14
2015-08-26T00:07:10.488Z,32.51
2015-08-26T00:07:22.878Z,32.04
2015-08-26T00:07:35.238Z,32.32
2015-08-26T00:07:47.599Z,32.23
2015-08-26T00:07:59.974Z,31.75
2015-08-26T00:08:12.349Z,32.23
2015-08-26T00:08:24.724Z,31.85
2015-08-26T00:08:37.083Z,31.85
2015-08-26T00:08:49.461Z,32.23
2015-08-26T00:09:01.836Z,32.14
2015-08-26T00:09:14.211Z,31.85
2015-08-26T00:09:26.602Z,32.04
2015-08-26T00:09:38.977Z,32.23
2015-08-26T00:09:51.353Z,32.51
2015-08-26T00:10:03.728Z,32.42
2015-08-26T00:10:16.103Z,32.7
2015-08-26T00:10:28.462Z,32.6
2015-08-26T00:10:40.837Z,32.42
2015-08-26T00:10:53.230Z,32.7
2015-08-26T00:11:05.605Z,32.6
2015-08-26T00:11:17.980Z,32.51
2015-08-26T00:11:30.355Z,32.7
2015-08-26T00:11:42.730Z,32.6
2015-08-26T00:11:55.107Z,32.7
2015-08-26T00:12:07.466Z,32.6
2015-08-26T00:12:19.857Z,32.6
2015-08-26T00:12:32.232Z,32.6
2015-08-26T00:12:44.623Z,32.6
2015-08-26T00:12:57.046Z,32.32
2015-08-26T00:13:09.421Z,32.14
2015-08-26T00:13:21.812Z,31.85
2015-08-26T00:13:34.234Z,31.75
2015-08-26T00:13:46.640Z,31.66
2015-08-26T00:13:59.048Z,31.28
2015-08-26T00:14:11.455Z,31.85
2015-08-26T00:14:23.845Z,31.66
2015-08-26T00:14:36.252Z,31.37
2015-08-26T00:14:48.658Z,31.37
2015-08-26T00:15:01.066Z,31.66
2015-08-26T00:15:13.504Z,31.85
2015-08-26T00:15:25.910Z,31.66
2015-08-26T00:15:38.316Z,32.14
2015-08-26T00:15:50.738Z,32.42
2015-08-26T00:16:03.115Z,32.14
2015-08-26T00:16:15.490Z,32.23
2015-08-26T00:16:27.849Z,32.14
2015-08-26T00:16:40.224Z,32.23
2015-08-26T00:16:52.646Z,31.95
2015-08-26T00:17:05.024Z,32.23
2015-08-26T00:17:17.384Z,32.42
2015-08-26T00:17:29.774Z,32.42
2015-08-26T00:17:42.165Z,32.7
2015-08-26T00:17:54.540Z,32.6
2015-08-26T00:18:06.916Z,32.7
2015-08-26T00:18:19.291Z,32.51
2015-08-26T00:18:31.666Z,32.51
2015-08-26T00:18:44.041Z,32.51
2015-08-26T00:18:56.431Z,32.7
2015-08-26T00:19:08.793Z,32.51
2015-08-26T00:19:21.168Z,32.79
2015-08-26T00:19:33.558Z,32.51
2015-08-26T00:19:45.918Z,32.7
2015-08-26T00:19:58.293Z,32.7
2015-08-26T00:20:10.670Z,32.6
2015-08-26T00:20:23.060Z,32.6
2015-08-26T00:20:35.435Z,32.6
2015-08-26T00:20:47.810Z,33.08
2015-08-26T00:21:00.185Z,33.37
2015-08-26T00:21:12.562Z,33.17
2015-08-26T00:21:24.937Z,32.98
2015-08-26T00:21:37.312Z,33.46
2015-08-26T00:21:49.687Z,32.98
2015-08-26T00:22:02.078Z,33.08
2015-08-26T00:22:14.455Z,33.27
2015-08-26T00:22:26.846Z,33.37
2015-08-26T00:22:39.221Z,33.17
2015-08-26T00:22:51.611Z,33.56
2015-08-26T00:23:04.002Z,33.94
2015-08-26T00:23:16.410Z,33.65
2015-08-26T00:23:28.832Z,33.56
2015-08-26T00:23:41.238Z,33.56
2015-08-26T00:23:53.629Z,33.75
2015-08-26T00:24:06.035Z,34.12
2015-08-26T00:24:18.443Z,33.94
2015-08-26T00:24:30.834Z,34.22
2015-08-26T00:24:43.256Z,34.12
2015-08-26T00:24:55.662Z,33.94
2015-08-26T00:25:08.068Z,34.03
2015-08-26T00:25:20.461Z,34.12
2015-08-26T00:25:32.867Z,34.22
2015-08-26T00:25:45.242Z,34.41
2015-08-26T00:25:57.617Z,34.12
2015-08-26T00:26:09.992Z,34.22
2015-08-26T00:26:22.354Z,34.12
2015-08-26T00:26:34.729Z,34.31
2015-08-26T00:26:47.104Z,34.12
2015-08-26T00:26:59.463Z,34.22
2015-08-26T00:27:11.854Z,34.22
2015-08-26T00:27:24.231Z,34.12
2015-08-26T00:27:36.606Z,34.5
2015-08-26T00:27:48.981Z,34.03
2015-08-26T00:28:01.356Z,33.75
2015-08-26T00:28:13.731Z,33.65
2015-08-26T00:28:26.108Z,33.94
2015-08-26T00:28:38.498Z,33.65
2015-08-26T00:28:50.873Z,33.75
2015-08-26T00:29:03.248Z,33.84
2015-08-26T00:29:15.623Z,33.94
2015-08-26T00:29:28.000Z,33.56
2015-08-26T00:29:40.375Z,33.56
2015-08-26T00:29:52.750Z,32.98
2015-08-26T00:30:04.422Z,32.89
2015-08-26T00:30:16.797Z,33.27
2015-08-26T00:30:29.174Z,32.89
2015-08-26T00:30:41.549Z,33.27
2015-08-26T00:30:53.924Z,33.46
2015-08-26T00:31:06.299Z,33.46
2015-08-26T00:31:18.674Z,33.08
2015-08-26T00:31:31.067Z,33.46
2015-08-26T00:31:43.442Z,33.56
2015-08-26T00:31:55.832Z,34.03
2015-08-26T00:32:08.239Z,33.75
2015-08-26T00:32:20.629Z,33.75
2015-08-26T00:32:33.022Z,33.56
2015-08-26T00:32:45.428Z,33.56
2015-08-26T00:32:57.850Z,33.56
2015-08-26T00:33:10.241Z,33.84
2015-08-26T00:33:22.647Z,33.75
2015-08-26T00:33:35.055Z,33.94
2015-08-26T00:33:47.446Z,34.03
2015-08-26T00:33:59.868Z,34.12
2015-08-26T00:34:12.274Z,34.03
2015-08-26T00:34:24.680Z,33.75
2015-08-26T00:34:36.370Z,33.84
2015-08-26T00:34:48.776Z,33.65
2015-08-26T00:35:01.182Z,33.46
2015-08-26T00:35:13.573Z,33.27
2015-08-26T00:35:25.948Z,32.98
2015-08-26T00:35:37.622Z,33.27
2015-08-26T00:35:49.997Z,32.89
2015-08-26T00:36:02.372Z,33.08
2015-08-26T00:36:14.731Z,33.46
2015-08-26T00:36:27.106Z,33.17
2015-08-26T00:36:39.499Z,33.46
2015-08-26T00:36:51.155Z,33.17
2015-08-26T00:37:03.530Z,33.37
2015-08-26T00:37:15.905Z,33.17
2015-08-26T00:37:28.280Z,33.17
2015-08-26T00:37:40.657Z,33.17
2015-08-26T00:37:53.032Z,33.08
2015-08-26T00:38:05.407Z,33.17
2015-08-26T00:38:17.766Z,32.98
2015-08-26T00:38:30.141Z,33.17
2015-08-26T00:38:42.518Z,33.37
2015-08-26T00:38:54.893Z,33.08
2015-08-26T00:39:07.284Z,32.7
2015-08-26T00:39:19.643Z,33.17
2015-08-26T00:39:32.034Z,33.17
2015-08-26T00:39:44.411Z,32.98
2015-08-26T00:39:56.786Z,32.51
2015-08-26T00:40:09.161Z,32.7
2015-08-26T00:40:21.536Z,33.17
2015-08-26T00:40:33.911Z,32.6
2015-08-26T00:40:46.288Z,32.7
2015-08-26T00:40:58.679Z,32.7
2015-08-26T00:41:11.069Z,32.51
2015-08-26T00:41:23.444Z,32.79
2015-08-26T00:41:35.835Z,32.7
2015-08-26T00:41:48.211Z,32.42
2015-08-26T00:42:00.617Z,32.04
2015-08-26T00:42:13.023Z,32.32
2015-08-26T00:42:25.430Z,31.56
2015-08-26T00:42:37.820Z,31.85
2015-08-26T00:42:50.229Z,31.85
2015-08-26T00:43:02.636Z,31.75
2015-08-26T00:43:15.042Z,31.75
2015-08-26T00:43:27.433Z,31.95
2015-08-26T00:43:39.854Z,31.28
2015-08-26T00:43:52.263Z,30.8
2015-08-26T00:44:04.653Z,30.8
2015-08-26T00:44:17.075Z,30.71
2015-08-26T00:44:29.497Z,30.62
2015-08-26T00:44:41.872Z,30.8
2015-08-26T00:44:54.249Z,30.8
2015-08-26T00:45:06.624Z,30.8
2015-08-26T00:45:18.999Z,30.62
2015-08-26T00:45:31.374Z,30.9
2015-08-26T00:45:43.749Z,30.99
2015-08-26T00:45:56.157Z,30.8
2015-08-26T00:46:08.532Z,30.62
2015-08-26T00:46:20.907Z,30.8
2015-08-26T00:46:33.282Z,30.8
2015-08-26T00:46:45.657Z,30.62
2015-08-26T00:46:58.034Z,30.52
2015-08-26T00:47:10.409Z,30.33
2015-08-26T00:47:22.784Z,30.24
2015-08-26T00:47:35.175Z,30.14
2015-08-26T00:47:47.550Z,29.67
2015-08-26T00:47:59.208Z,29.19
2015-08-26T00:48:11.599Z,29.1
2015-08-26T00:48:23.974Z,28.63
2015-08-26T00:48:36.349Z,28.44
2015-08-26T00:48:48.724Z,28.63
2015-08-26T00:49:01.115Z,28.72
2015-08-26T00:49:13.490Z,28.72
2015-08-26T00:49:25.850Z,28.63
2015-08-26T00:49:38.225Z,28.06
2015-08-26T00:49:50.600Z,27.96
2015-08-26T00:50:02.977Z,27.77
2015-08-26T00:50:15.352Z,27.49
2015-08-26T00:50:27.742Z,27.39
2015-08-26T00:50:40.117Z,27.2
2015-08-26T00:50:52.508Z,27.2
2015-08-26T00:51:04.886Z,27.01
2015-08-26T00:51:17.277Z,27.2
2015-08-26T00:51:29.652Z,27.01
2015-08-26T00:51:42.058Z,26.92
2015-08-26T00:51:54.449Z,26.92
2015-08-26T00:52:06.857Z,27.11
2015-08-26T00:52:19.263Z,26.82
2015-08-26T00:52:31.654Z,27.2
2015-08-26T00:52:44.060Z,27.58
2015-08-26T00:52:56.451Z,27.77
2015-08-26T00:53:08.858Z,27.49
2015-08-26T00:53:21.295Z,27.3
2015-08-26T00:53:33.702Z,27.68
2015-08-26T00:53:46.092Z,27.58
2015-08-26T00:53:58.498Z,27.3
2015-08-26T00:54:10.923Z,27.39
2015-08-26T00:54:23.298Z,27.58
2015-08-26T00:54:35.673Z,27.68
2015-08-26T00:54:48.048Z,27.68
2015-08-26T00:55:00.423Z,27.39
2015-08-26T00:55:12.815Z,27.2
2015-08-26T00:55:25.174Z,27.11
2015-08-26T00:55:37.565Z,26.82
2015-08-26T00:55:49.940Z,27.01
2015-08-26T00:56:02.299Z,26.92
2015-08-26T00:56:14.677Z,27.01
2015-08-26T00:56:27.052Z,26.82
2015-08-26T00:56:39.412Z,27.11
2015-08-26T00:56:51.787Z,27.01
2015-08-26T00:57:04.177Z,27.11
2015-08-26T00:57:16.553Z,26.92
2015-08-26T00:57:28.928Z,26.82
2015-08-26T00:57:40.600Z,26.92
2015-08-26T00:57:52.975Z,26.73
2015-08-26T00:58:05.350Z,26.92
2015-08-26T00:58:17.728Z,27.01
2015-08-26T00:58:30.103Z,27.01
2015-08-26T00:58:42.478Z,26.92
2015-08-26T00:58:54.869Z,27.11
2015-08-26T00:59:07.244Z,26.92
2015-08-26T00:59:19.620Z,27.11
2015-08-26T00:59:31.995Z,27.01
2015-08-26T00:59:44.370Z,27.39
2015-08-26T00:59:56.745Z,26.92
2015-08-26T01:00:09.135Z,27.01
2015-08-26T01:00:21.528Z,27.01
2015-08-26T01:00:33.919Z,27.01
2015-08-26T01:00:46.294Z,27.01
2015-08-26T01:00:58.684Z,27.01
2015-08-26T01:01:11.075Z,26.73
2015-08-26T01:01:23.483Z,26.73
2015-08-26T01:01:35.905Z,26.92
2015-08-26T01:01:48.311Z,26.45
2015-08-26T01:02:00.733Z,26.35
2015-08-26T01:02:13.124Z,26.54
2015-08-26T01:02:25.532Z,26.16
2015-08-26T01:02:37.220Z,26.82
2015-08-26T01:02:49.626Z,26.45
2015-08-26T01:03:02.032Z,26.73
2015-08-26T01:03:14.438Z,26.92
2015-08-26T01:03:26.832Z,26.92
2015-08-26T01:03:39.254Z,26.82
2015-08-26T01:03:51.629Z,26.73
2015-08-26T01:04:04.004Z,27.3
2015-08-26T01:04:16.379Z,27.2
2015-08-26T01:04:28.755Z,27.3
2015-08-26T01:04:41.130Z,27.77
2015-08-26T01:04:53.505Z,27.68
2015-08-26T01:05:05.880Z,28.15
2015-08-26T01:05:18.255Z,28.34
2015-08-26T01:05:30.632Z,28.63
2015-08-26T01:05:43.038Z,29
2015-08-26T01:05:55.413Z,28.91
2015-08-26T01:06:07.788Z,29.1
2015-08-26T01:06:20.147Z,28.91
2015-08-26T01:06:32.540Z,28.34
2015-08-26T01:06:44.915Z,28.63
2015-08-26T01:06:57.306Z,28.15
2015-08-26T01:07:09.681Z,27.87
2015-08-26T01:07:21.899Z,27.58
2015-08-26T01:07:34.276Z,27.49
2015-08-26T01:07:46.636Z,26.92
2015-08-26T01:07:59.011Z,26.92
2015-08-26T01:08:11.386Z,26.73
2015-08-26T01:08:23.620Z,26.26
2015-08-26T01:08:35.997Z,26.26
2015-08-26T01:08:48.372Z,26.07
2015-08-26T01:09:00.747Z,25.97
2015-08-26T01:09:13.122Z,25.97
2015-08-26T01:09:25.513Z,26.35
2015-08-26T01:09:37.890Z,25.68
2015-08-26T01:09:50.280Z,25.78
2015-08-26T01:10:02.671Z,25.97
2015-08-26T01:10:15.046Z,26.16
2015-08-26T01:10:27.437Z,26.16
2015-08-26T01:10:39.814Z,26.45
2015-08-26T01:10:52.236Z,26.82
2015-08-26T01:11:04.642Z,26.92
2015-08-26T01:11:17.048Z,27.11
2015-08-26T01:11:29.454Z,27.01
2015-08-26T01:11:41.863Z,27.3
2015-08-26T01:11:54.269Z,27.58
2015-08-26T01:12:06.675Z,27.58
2015-08-26T01:12:19.081Z,27.58
2015-08-26T01:12:31.503Z,27.68
2015-08-26T01:12:43.193Z,27.39
2015-08-26T01:12:55.615Z,27.2
2015-08-26T01:13:07.990Z,27.39
2015-08-26T01:13:20.365Z,26.92
2015-08-26T01:13:32.740Z,27.01
2015-08-26T01:13:45.117Z,26.54
2015-08-26T01:13:57.492Z,26.45
2015-08-26T01:14:09.867Z,26.16
2015-08-26T01:14:22.242Z,25.88
2015-08-26T01:14:34.617Z,25.49
2015-08-26T01:14:46.994Z,25.4
2015-08-26T01:14:59.369Z,25.31
2015-08-26T01:15:11.759Z,24.93
2015-08-26T01:15:24.134Z,24.93
2015-08-26T01:15:36.509Z,25.02
2015-08-26T01:15:48.886Z,24.84
2015-08-26T01:16:01.261Z,24.74
2015-08-26T01:16:13.652Z,24.17
2015-08-26T01:16:26.027Z,24.27
2015-08-26T01:16:38.402Z,23.79
2015-08-26T01:16:50.779Z,24.27
2015-08-26T01:17:03.154Z,23.41
2015-08-26T01:17:15.529Z,23.32
2015-08-26T01:17:27.919Z,23.41
2015-08-26T01:17:40.294Z,23.32
2015-08-26T01:17:52.686Z,23.22
2015-08-26T01:18:05.061Z,23.22
2015-08-26T01:18:17.436Z,23.13
2015-08-26T01:18:29.827Z,22.85
2015-08-26T01:18:42.233Z,22.94
2015-08-26T01:18:54.658Z,22.85
2015-08-26T01:19:07.048Z,22.85
2015-08-26T01:19:19.470Z,23.13
2015-08-26T01:19:31.861Z,23.5
2015-08-26T01:19:44.267Z,23.32
2015-08-26T01:19:56.674Z,23.22
2015-08-26T01:20:08.924Z,23.32
2015-08-26T01:20:21.346Z,23.32
2015-08-26T01:20:33.753Z,23.22
2015-08-26T01:20:46.143Z,23.22
2015-08-26T01:20:58.551Z,23.32
2015-08-26T01:21:10.926Z,23.32
2015-08-26T01:21:23.301Z,23.32
2015-08-26T01:21:35.520Z,23.22
2015-08-26T01:21:47.895Z,23.6
2015-08-26T01:22:00.273Z,23.22
2015-08-26T01:22:12.633Z,23.32
2015-08-26T01:22:25.008Z,23.5
2015-08-26T01:22:36.695Z,23.69
2015-08-26T01:22:49.070Z,23.79
2015-08-26T01:23:01.447Z,23.98
2015-08-26T01:23:13.822Z,24.17
2015-08-26T01:23:26.197Z,23.88
2015-08-26T01:23:38.572Z,24.17
2015-08-26T01:23:50.947Z,24.27
2015-08-26T01:24:03.324Z,24.46
2015-08-26T01:24:15.699Z,24.46
2015-08-26T01:24:28.090Z,24.27
2015-08-26T01:24:40.465Z,24.17
2015-08-26T01:24:52.840Z,24.27
2015-08-26T01:25:05.217Z,24.55
2015-08-26T01:25:17.576Z,24.65
2015-08-26T01:25:29.967Z,24.65
2015-08-26T01:25:41.639Z,24.17
2015-08-26T01:25:53.998Z,24.17
2015-08-26T01:26:06.374Z,24.27
2015-08-26T01:26:18.749Z,24.27
2015-08-26T01:26:31.124Z,24.36
2015-08-26T01:26:43.515Z,24.27
2015-08-26T01:26:55.905Z,24.27
2015-08-26T01:27:08.283Z,24.27
2015-08-26T01:27:20.689Z,24.27
2015-08-26T01:27:33.064Z,24.27
2015-08-26T01:27:45.455Z,23.88
2015-08-26T01:27:57.846Z,23.88
2015-08-26T01:28:10.254Z,23.88
2015-08-26T01:28:22.660Z,23.88
2015-08-26T01:28:35.066Z,23.98
2015-08-26T01:28:47.457Z,23.88
2015-08-26T01:28:59.863Z,24.27
2015-08-26T01:29:12.256Z,23.98
2015-08-26T01:29:23.943Z,24.27
2015-08-26T01:29:36.350Z,24.46
2015-08-26T01:29:48.772Z,24.65
2015-08-26T01:30:01.178Z,24.55
2015-08-26T01:30:13.570Z,24.84
2015-08-26T01:30:25.992Z,24.93
2015-08-26T01:30:38.367Z,25.12
2015-08-26T01:30:50.742Z,24.84
2015-08-26T01:31:03.117Z,25.02
2015-08-26T01:31:14.776Z,24.74
2015-08-26T01:31:27.166Z,25.02
2015-08-26T01:31:39.541Z,24.74
2015-08-26T01:31:51.916Z,25.02
2015-08-26T01:32:04.291Z,24.93
2015-08-26T01:32:16.668Z,25.4
2015-08-26T01:32:29.059Z,25.4
2015-08-26T01:32:41.434Z,25.02
2015-08-26T01:32:53.809Z,25.12
2015-08-26T01:33:06.184Z,25.02
2015-08-26T01:33:18.560Z,24.84
2015-08-26T01:33:30.950Z,24.93
2015-08-26T01:33:43.325Z,24.93
2015-08-26T01:33:55.700Z,25.02
2015-08-26T01:34:08.060Z,25.02
2015-08-26T01:34:20.452Z,24.93
2015-08-26T01:34:32.812Z,24.84
2015-08-26T01:34:45.202Z,25.02
2015-08-26T01:34:57.577Z,24.46
2015-08-26T01:35:09.952Z,25.12
2015-08-26T01:35:22.330Z,24.93
2015-08-26T01:35:34.721Z,25.21
2015-08-26T01:35:47.096Z,24.93
2015-08-26T01:35:59.471Z,25.02
2015-08-26T01:36:11.830Z,24.93
2015-08-26T01:36:24.206Z,25.12
2015-08-26T01:36:36.597Z,24.74
2015-08-26T01:36:48.988Z,24.93
2015-08-26T01:37:01.363Z,25.02
2015-08-26T01:37:13.738Z,24.84
2015-08-26T01:37:26.147Z,25.12
2015-08-26T01:37:38.538Z,25.02
2015-08-26T01:37:50.959Z,24.93
2015-08-26T01:38:03.366Z,25.21
2015-08-26T01:38:15.772Z,25.12
2015-08-26T01:38:28.164Z,25.31
2015-08-26T01:38:40.570Z,25.4
2015-08-26T01:38:52.976Z,25.49
2015-08-26T01:39:05.382Z,25.21
2015-08-26T01:39:17.804Z,25.78
2015-08-26T01:39:30.056Z,25.4
2015-08-26T01:39:42.462Z,25.97
2015-08-26T01:39:54.869Z,25.97
2015-08-26T01:40:07.228Z,26.07
2015-08-26T01:40:19.603Z,25.97
2015-08-26T01:40:31.996Z,26.07
2015-08-26T01:40:44.371Z,25.88
2015-08-26T01:40:56.746Z,25.68
2015-08-26T01:41:09.121Z,25.78
2015-08-26T01:41:21.480Z,25.88
2015-08-26T01:41:33.874Z,25.88
2015-08-26T01:41:46.264Z,25.88
2015-08-26T01:41:58.639Z,26.07
2015-08-26T01:42:11.014Z,25.88
2015-08-26T01:42:23.374Z,26.07
2015-08-26T01:42:35.766Z,26.35
2015-08-26T01:42:48.141Z,26.26
2015-08-26T01:43:00.532Z,26.45
2015-08-26T01:43:12.891Z,26.54
2015-08-26T01:43:25.266Z,26.54
2015-08-26T01:43:37.643Z,26.54
2015-08-26T01:43:50.018Z,26.26
2015-08-26T01:44:02.409Z,26.54
2015-08-26T01:44:14.784Z,26.54
2015-08-26T01:44:27.175Z,26.73
2015-08-26T01:44:39.551Z,26.92
2015-08-26T01:44:51.910Z,26.82
2015-08-26T01:45:04.301Z,26.82
2015-08-26T01:45:16.660Z,26.64
2015-08-26T01:45:29.019Z,26.92
2015-08-26T01:45:40.679Z,27.01
2015-08-26T01:45:53.069Z,27.11
2015-08-26T01:46:05.444Z,27.01
2015-08-26T01:46:17.835Z,26.92
2015-08-26T01:46:30.225Z,26.82
2015-08-26T01:46:42.601Z,27.2
2015-08-26T01:46:54.992Z,27.11
2015-08-26T01:47:07.398Z,27.01
2015-08-26T01:47:19.805Z,26.92
2015-08-26T01:47:32.211Z,27.39
2015-08-26T01:47:44.619Z,27.01
2015-08-26T01:47:57.041Z,27.01
2015-08-26T01:48:08.728Z,26.92
2015-08-26T01:48:21.135Z,27.01
2015-08-26T01:48:33.541Z,27.11
2015-08-26T01:48:45.980Z,27.3
2015-08-26T01:48:58.371Z,27.2
2015-08-26T01:49:10.777Z,27.39
2015-08-26T01:49:23.184Z,27.11
2015-08-26T01:49:35.559Z,27.3
2015-08-26T01:49:47.936Z,27.58
2015-08-26T01:50:00.311Z,27.77
2015-08-26T01:50:12.686Z,27.49
2015-08-26T01:50:25.061Z,27.58
2015-08-26T01:50:37.420Z,27.77
2015-08-26T01:50:49.813Z,27.87
2015-08-26T01:51:02.188Z,27.87
2015-08-26T01:51:14.563Z,28.06
2015-08-26T01:51:26.953Z,28.15
2015-08-26T01:51:39.328Z,28.06
2015-08-26T01:51:51.705Z,28.15
2015-08-26T01:52:04.065Z,28.34
2015-08-26T01:52:16.440Z,28.72
2015-08-26T01:52:28.830Z,28.91
2015-08-26T01:52:40.502Z,28.44
2015-08-26T01:52:52.879Z,28.81
2015-08-26T01:53:05.254Z,28.63
2015-08-26T01:53:17.629Z,28.63
2015-08-26T01:53:30.004Z,29.1
2015-08-26T01:53:42.379Z,29.19
2015-08-26T01:53:54.756Z,29.29
2015-08-26T01:54:07.147Z,29.38
2015-08-26T01:54:19.506Z,29.29
2015-08-26T01:54:31.881Z,29.76
2015-08-26T01:54:44.256Z,29.86
2015-08-26T01:54:56.649Z,29.95
2015-08-26T01:55:09.024Z,29.76
2015-08-26T01:55:21.414Z,30.05
2015-08-26T01:55:33.805Z,30.05
2015-08-26T01:55:46.180Z,29.86
2015-08-26T01:55:58.573Z,29.95
2015-08-26T01:56:10.244Z,30.33
2015-08-26T01:56:21.916Z,30.33
2015-08-26T01:56:34.323Z,30.24
2015-08-26T01:56:46.729Z,30.14
2015-08-26T01:56:59.137Z,30.14
2015-08-26T01:57:11.528Z,30.43
2015-08-26T01:57:23.934Z,29.86
2015-08-26T01:57:36.340Z,30.05
2015-08-26T01:57:48.746Z,30.14
2015-08-26T01:58:00.998Z,30.14
2015-08-26T01:58:13.405Z,29.67
2015-08-26T01:58:25.827Z,29.86
2015-08-26T01:58:38.264Z,29.86
2015-08-26T01:58:50.670Z,29.57
2015-08-26T01:59:03.079Z,29.76
2015-08-26T01:59:15.454Z,29.67
2015-08-26T01:59:27.829Z,29.76
2015-08-26T01:59:40.204Z,29.67
2015-08-26T01:59:52.579Z,29.67
2015-08-26T02:00:04.956Z,29.67
2015-08-26T02:00:17.331Z,29.95
2015-08-26T02:00:29.706Z,30.14
2015-08-26T02:00:42.096Z,29.95
2015-08-26T02:00:54.456Z,30.24
2015-08-26T02:01:06.833Z,30.62
2015-08-26T02:01:19.208Z,30.71
2015-08-26T02:01:31.583Z,30.8
2015-08-26T02:01:43.958Z,31.18
2015-08-26T02:01:56.333Z,31.37
2015-08-26T02:02:08.725Z,31.09
2015-08-26T02:02:21.100Z,31.09
2015-08-26T02:02:33.460Z,31.09
2015-08-26T02:02:45.850Z,31.18
2015-08-26T02:02:58.225Z,30.99
2015-08-26T02:03:10.587Z,30.99
2015-08-26T02:03:22.962Z,31.18
2015-08-26T02:03:35.352Z,30.99
2015-08-26T02:03:47.727Z,30.9
2015-08-26T02:04:00.102Z,30.99
2015-08-26T02:04:12.464Z,30.9
2015-08-26T02:04:24.120Z,31.09
2015-08-26T02:04:36.495Z,30.62
2015-08-26T02:04:48.870Z,30.8
2015-08-26T02:05:01.260Z,31.18
2015-08-26T02:05:12.933Z,31.09
2015-08-26T02:05:25.308Z,31.09
2015-08-26T02:05:37.699Z,30.9
2015-08-26T02:05:50.074Z,30.99
2015-08-26T02:06:02.465Z,30.9
2015-08-26T02:06:14.874Z,31.18
2015-08-26T02:06:27.296Z,31.09
2015-08-26T02:06:38.983Z,31.09
2015-08-26T02:06:51.389Z,31.28
2015-08-26T02:07:03.780Z,31.28
2015-08-26T02:07:16.173Z,31.09
2015-08-26T02:07:28.595Z,31.66
2015-08-26T02:07:41.001Z,31.66
2015-08-26T02:07:53.423Z,31.55
2015-08-26T02:08:05.813Z,32.32
2015-08-26T02:08:18.237Z,31.85
2015-08-26T02:08:30.612Z,32.42
2015-08-26T02:08:42.987Z,32.51
2015-08-26T02:08:55.378Z,33.08
2015-08-26T02:09:07.034Z,33.27
2015-08-26T02:09:19.411Z,33.37
2015-08-26T02:09:31.802Z,33.84
2015-08-26T02:09:44.177Z,33.94
2015-08-26T02:09:56.552Z,34.12
2015-08-26T02:10:08.942Z,34.5
2015-08-26T02:10:21.304Z,35.26
2015-08-26T02:10:33.679Z,35.36
2015-08-26T02:10:46.054Z,35.93
2015-08-26T02:10:58.444Z,36.11
2015-08-26T02:11:10.804Z,36.68
2015-08-26T02:11:22.477Z,37.06
2015-08-26T02:11:34.867Z,37.92
2015-08-26T02:11:47.242Z,37.92
2015-08-26T02:11:59.617Z,38.39
2015-08-26T02:12:11.992Z,38.67
2015-08-26T02:12:24.403Z,38.86
2015-08-26T02:12:36.778Z,39.05
2015-08-26T02:12:49.153Z,39.24
2015-08-26T02:13:01.543Z,39.24
2015-08-26T02:13:13.918Z,39.62
2015-08-26T02:13:26.340Z,39.62
2015-08-26T02:13:38.715Z,39.34
2015-08-26T02:13:51.090Z,38.96
2015-08-26T02:14:03.465Z,39.15
2015-08-26T02:14:15.840Z,39.15
2015-08-26T02:14:28.279Z,39.05
2015-08-26T02:14:40.670Z,39.15
2015-08-26T02:14:53.060Z,39.24
2015-08-26T02:15:05.451Z,39.24
2015-08-26T02:15:17.842Z,39.15
2015-08-26T02:15:30.279Z,39.72
2015-08-26T02:15:42.685Z,39.81
2015-08-26T02:15:55.123Z,39.43
2015-08-26T02:16:07.545Z,39.72
2015-08-26T02:16:19.951Z,40
2015-08-26T02:16:32.389Z,40.47
2015-08-26T02:16:44.795Z,40.28
2015-08-26T02:16:57.201Z,40.95
2015-08-26T02:17:09.639Z,41.33
2015-08-26T02:17:22.045Z,41.61
2015-08-26T02:17:34.482Z,41.61
2015-08-26T02:17:46.857Z,41.8
2015-08-26T02:17:59.232Z,41.71
2015-08-26T02:18:11.607Z,42.18
2015-08-26T02:18:23.982Z,42.27
2015-08-26T02:18:36.376Z,42.37
2015-08-26T02:18:48.751Z,42.85
2015-08-26T02:19:01.126Z,42.75
2015-08-26T02:19:13.501Z,43.13
2015-08-26T02:19:25.892Z,43.23
2015-08-26T02:19:38.285Z,43.23
2015-08-26T02:19:50.660Z,43.23
2015-08-26T02:20:03.035Z,43.51
2015-08-26T02:20:15.410Z,43.32
2015-08-26T02:20:27.800Z,43.41
2015-08-26T02:20:40.209Z,43.7
2015-08-26T02:20:52.584Z,43.6
2015-08-26T02:21:04.959Z,43.6
2015-08-26T02:21:17.318Z,43.23
2015-08-26T02:21:29.693Z,43.23
2015-08-26T02:21:42.102Z,43.32
2015-08-26T02:21:54.477Z,43.41
2015-08-26T02:22:06.852Z,43.23
2015-08-26T02:22:19.227Z,43.23
2015-08-26T02:22:31.602Z,43.23
2015-08-26T02:22:43.988Z,43.41
2015-08-26T02:22:56.363Z,43.7
2015-08-26T02:23:08.738Z,43.32
2015-08-26T02:23:21.097Z,43.32
2015-08-26T02:23:33.488Z,43.04
2015-08-26T02:23:45.887Z,43.41
2015-08-26T02:23:58.277Z,43.7
2015-08-26T02:24:10.652Z,43.32
2015-08-26T02:24:23.027Z,43.13
2015-08-26T02:24:35.418Z,43.23
2015-08-26T02:24:47.832Z,42.94
2015-08-26T02:25:00.254Z,43.41
2015-08-26T02:25:12.660Z,43.32
2015-08-26T02:25:25.051Z,42.94
2015-08-26T02:25:37.457Z,43.32
2015-08-26T02:25:49.871Z,42.94
2015-08-26T02:26:02.262Z,43.04
2015-08-26T02:26:14.653Z,42.66
2015-08-26T02:26:27.075Z,42.85
2015-08-26T02:26:39.481Z,43.04
2015-08-26T02:26:51.879Z,42.94
2015-08-26T02:27:04.270Z,43.04
2015-08-26T02:27:16.692Z,42.56
2015-08-26T02:27:29.067Z,42.47
2015-08-26T02:27:41.442Z,42.37
2015-08-26T02:27:53.822Z,41.89
2015-08-26T02:28:06.197Z,41.35
2015-08-26T02:28:18.572Z,41.05
2015-08-26T02:28:30.947Z,40.95
2015-08-26T02:28:43.322Z,40.38
2015-08-26T02:28:55.700Z,40.38
2015-08-26T02:29:08.075Z,40
2015-08-26T02:29:20.450Z,39.53
2015-08-26T02:29:32.825Z,39.62
2015-08-26T02:29:45.200Z,39.81
2015-08-26T02:29:57.579Z,39.62
2015-08-26T02:30:09.954Z,39.72
2015-08-26T02:30:22.345Z,39.53
2015-08-26T02:30:34.735Z,39.53
2015-08-26T02:30:47.110Z,39.53
2015-08-26T02:30:59.490Z,39.53
2015-08-26T02:31:11.865Z,39.53
2015-08-26T02:31:24.256Z,39.43
2015-08-26T02:31:36.631Z,39.05
2015-08-26T02:31:49.021Z,38.58
2015-08-26T02:32:01.399Z,38.67
2015-08-26T02:32:13.774Z,38.48
2015-08-26T02:32:26.165Z,38.2
2015-08-26T02:32:37.821Z,38.1
2015-08-26T02:32:50.196Z,37.82
2015-08-26T02:33:02.590Z,37.54
2015-08-26T02:33:14.981Z,37.44
2015-08-26T02:33:27.356Z,37.16
2015-08-26T02:33:39.746Z,37.06
2015-08-26T02:33:52.137Z,36.97
2015-08-26T02:34:04.515Z,37.16
2015-08-26T02:34:16.905Z,37.25
2015-08-26T02:34:29.296Z,37.16
2015-08-26T02:34:41.718Z,36.97
2015-08-26T02:34:54.124Z,36.78
2015-08-26T02:35:06.549Z,36.97
2015-08-26T02:35:18.940Z,37.06
2015-08-26T02:35:31.330Z,37.16
2015-08-26T02:35:43.721Z,37.06
2015-08-26T02:35:56.112Z,37.25
2015-08-26T02:36:08.535Z,37.25
2015-08-26T02:36:20.926Z,37.44
2015-08-26T02:36:33.332Z,37.16
2015-08-26T02:36:45.707Z,37.25
2015-08-26T02:36:58.082Z,37.35
2015-08-26T02:37:10.446Z,37.54
2015-08-26T02:37:22.821Z,37.35
2015-08-26T02:37:35.196Z,37.82
2015-08-26T02:37:47.571Z,37.92
2015-08-26T02:37:59.946Z,38.01
2015-08-26T02:38:12.322Z,38.01
2015-08-26T02:38:24.697Z,37.92
2015-08-26T02:38:37.072Z,38.2
2015-08-26T02:38:49.447Z,38.1
2015-08-26T02:39:01.822Z,38.2
2015-08-26T02:39:14.200Z,38.58
2015-08-26T02:39:26.575Z,38.58
2015-08-26T02:39:38.965Z,38.39
2015-08-26T02:39:51.340Z,38.86